createdAt,value
2019-05-05T00:00:24.616Z,7.25
2019-05-05T00:01:46.980Z,7.05
2019-05-05T00:02:58.502Z,6.80
2019-05-05T00:04:12.539Z,7.10
2019-05-05T00:05:32.671Z,7.40
2019-05-05T00:06:37.051Z,6.97
2019-05-05T00:07:41.403Z,7.45
2019-05-05T00:08:45.837Z,7.30
2019-05-05T00:09:50.284Z,6.92
2019-05-05T00:11:10.331Z,6.72
2019-05-05T00:12:31.843Z,6.90
2019-05-05T00:13:55.175Z,6.40
2019-05-05T00:15:34.483Z,6.97
2019-05-05T00:17:10.173Z,7.30
2019-05-05T00:18:15.199Z,9.18
2019-05-05T00:19:32.218Z,9.78
2019-05-05T00:20:25.778Z,10.95
2019-05-05T00:21:30.331Z,9.60
2019-05-05T00:22:35.088Z,8.68
2019-05-05T00:23:39.395Z,8.80
2019-05-05T00:24:44.380Z,8.80
2019-05-05T00:25:48.999Z,9.28
2019-05-05T00:26:55.226Z,10.82
2019-05-05T00:27:59.451Z,9.15
2019-05-05T00:29:04.453Z,9.23
2019-05-05T00:30:09.070Z,9.70
2019-05-05T00:31:15.069Z,8.48
2019-05-05T00:32:19.720Z,7.60
2019-05-05T00:33:24.870Z,7.58
2019-05-05T00:34:29.500Z,7.78
2019-05-05T00:35:34.510Z,7.97
2019-05-05T00:36:38.958Z,8.35
2019-05-05T00:37:45.048Z,8.30
2019-05-05T00:38:49.797Z,8.35
2019-05-05T00:39:54.386Z,7.62
2019-05-05T00:40:59.029Z,10.15
2019-05-05T00:42:04.800Z,9.23
2019-05-05T00:43:09.347Z,8.25
2019-05-05T00:44:15.310Z,8.53
2019-05-05T00:45:20.011Z,8.68
2019-05-05T00:46:44.590Z,8.83
2019-05-05T00:48:01.491Z,8.20
2019-05-05T00:49:07.092Z,8.10
2019-05-05T00:50:14.560Z,8.35
2019-05-05T00:51:19.097Z,8.90
2019-05-05T00:52:24.554Z,8.80
2019-05-05T00:53:29.127Z,8.60
2019-05-05T00:54:34.697Z,8.33
2019-05-05T00:55:41.716Z,7.42
2019-05-05T00:56:46.038Z,8.70
2019-05-05T00:57:50.399Z,8.85
2019-05-05T00:58:58.865Z,8.13
2019-05-05T01:00:05.066Z,8.85
2019-05-05T01:01:34.557Z,8.38
2019-05-05T01:02:44.844Z,8.48
2019-05-05T01:03:49.397Z,8.00
2019-05-05T01:05:10.557Z,8.05
2019-05-05T01:06:20.880Z,7.28
2019-05-05T01:07:25.182Z,7.80
2019-05-05T01:08:29.679Z,7.83
2019-05-05T01:09:35.842Z,7.95
2019-05-05T01:10:40.258Z,8.68
2019-05-05T01:11:44.695Z,9.25
2019-05-05T01:12:49.134Z,8.48
2019-05-05T01:13:54.690Z,9.43
2019-05-05T01:14:59.332Z,11.30
2019-05-05T01:16:04.786Z,11.10
2019-05-05T01:17:09.593Z,9.80
2019-05-05T01:18:15.253Z,9.78
2019-05-05T01:19:19.931Z,9.68
2019-05-05T01:20:25.014Z,10.03
2019-05-05T01:21:29.454Z,9.30
2019-05-05T01:22:34.235Z,11.00
2019-05-05T01:23:38.803Z,11.22
2019-05-05T01:24:43.133Z,12.70
2019-05-05T01:25:48.770Z,11.50
2019-05-05T01:26:55.001Z,12.50
2019-05-05T01:27:59.463Z,11.38
2019-05-05T01:29:05.343Z,9.83
2019-05-05T01:30:15.527Z,11.63
2019-05-05T01:31:20.277Z,10.70
2019-05-05T01:32:28.883Z,11.95
2019-05-05T01:33:39.074Z,11.50
2019-05-05T01:34:45.014Z,12.03
2019-05-05T01:35:49.523Z,11.83
2019-05-05T01:37:00.080Z,11.43
2019-05-05T01:38:14.224Z,12.47
2019-05-05T01:39:36.596Z,11.28
2019-05-05T01:40:47.794Z,10.82
2019-05-05T01:41:55.614Z,10.95
2019-05-05T01:42:59.984Z,11.33
2019-05-05T01:44:04.966Z,12.07
2019-05-05T01:45:09.499Z,11.85
2019-05-05T01:46:14.430Z,11.55
2019-05-05T01:47:19.035Z,13.15
2019-05-05T01:48:24.804Z,10.05
2019-05-05T01:49:30.740Z,11.78
2019-05-05T01:50:35.248Z,11.95
2019-05-05T01:51:39.734Z,10.72
2019-05-05T01:52:45.106Z,12.30
2019-05-05T01:53:49.595Z,9.95
2019-05-05T01:54:54.815Z,10.85
2019-05-05T01:56:00.212Z,10.32
2019-05-05T01:57:05.552Z,11.25
2019-05-05T01:58:10.302Z,11.35
2019-05-05T01:59:14.783Z,11.20
2019-05-05T02:00:19.341Z,11.15
2019-05-05T02:01:24.644Z,10.98
2019-05-05T02:02:29.319Z,11.08
2019-05-05T02:03:34.988Z,10.85
2019-05-05T02:04:39.667Z,11.50
2019-05-05T02:05:45.280Z,11.03
2019-05-05T02:06:50.363Z,11.38
2019-05-05T02:07:55.305Z,10.30
2019-05-05T02:09:00.016Z,11.22
2019-05-05T02:10:06.048Z,10.43
2019-05-05T02:11:11.548Z,11.22
2019-05-05T02:12:16.098Z,11.57
2019-05-05T02:13:20.579Z,10.18
2019-05-05T02:14:25.363Z,10.05
2019-05-05T02:15:29.751Z,11.03
2019-05-05T02:16:34.741Z,10.65
2019-05-05T02:17:39.454Z,11.40
2019-05-05T02:18:45.067Z,12.10
2019-05-05T02:19:49.708Z,12.20
2019-05-05T02:21:05.806Z,12.07
2019-05-05T02:22:10.135Z,12.82
2019-05-05T02:23:16.240Z,13.15
2019-05-05T02:24:20.784Z,12.37
2019-05-05T02:25:25.114Z,12.35
2019-05-05T02:26:29.463Z,13.08
2019-05-05T02:27:34.403Z,13.48
2019-05-05T02:28:58.262Z,13.20
2019-05-05T02:30:21.847Z,12.60
2019-05-05T02:31:45.548Z,13.98
2019-05-05T02:32:55.440Z,13.95
2019-05-05T02:34:00.010Z,14.65
2019-05-05T02:35:06.826Z,14.50
2019-05-05T02:36:11.214Z,15.25
2019-05-05T02:37:16.153Z,14.93
2019-05-05T02:38:20.811Z,15.35
2019-05-05T02:39:25.287Z,14.80
2019-05-05T02:40:29.963Z,15.10
2019-05-05T02:41:34.868Z,15.45
2019-05-05T02:42:41.163Z,13.88
2019-05-05T02:43:45.945Z,15.08
2019-05-05T02:44:54.275Z,14.50
2019-05-05T02:46:26.265Z,14.38
2019-05-05T02:47:56.474Z,13.25
2019-05-05T02:49:05.445Z,13.32
2019-05-05T02:50:09.464Z,13.00
2019-05-05T02:51:15.404Z,13.40
2019-05-05T02:52:21.058Z,12.35
2019-05-05T02:53:33.981Z,12.60
2019-05-05T02:54:39.279Z,12.03
2019-05-05T02:55:44.245Z,11.70
2019-05-05T02:56:50.453Z,12.75
2019-05-05T02:57:56.535Z,11.50
2019-05-05T02:59:04.303Z,11.80
2019-05-05T03:00:24.067Z,11.60
2019-05-05T03:01:36.905Z,11.78
2019-05-05T03:02:43.303Z,11.73
2019-05-05T03:03:48.668Z,12.25
2019-05-05T03:04:53.682Z,11.63
2019-05-05T03:05:59.098Z,12.35
2019-05-05T03:07:05.388Z,11.28
2019-05-05T03:08:09.947Z,11.53
2019-05-05T03:09:15.122Z,11.78
2019-05-05T03:10:19.618Z,12.30
2019-05-05T03:11:25.494Z,12.10
2019-05-05T03:12:34.569Z,11.68
2019-05-05T03:13:41.137Z,11.40
2019-05-05T03:14:46.639Z,11.12
2019-05-05T03:16:16.942Z,10.70
2019-05-05T03:17:23.473Z,10.65
2019-05-05T03:18:28.537Z,10.63
2019-05-05T03:19:33.928Z,11.55
2019-05-05T03:20:38.595Z,11.12
2019-05-05T03:21:44.173Z,9.90
2019-05-05T03:22:48.781Z,9.73
2019-05-05T03:23:54.775Z,9.45
2019-05-05T03:24:59.661Z,9.75
2019-05-05T03:26:04.457Z,10.20
2019-05-05T03:27:09.927Z,10.30
2019-05-05T03:28:14.331Z,9.68
2019-05-05T03:29:20.489Z,10.60
2019-05-05T03:30:26.042Z,9.68
2019-05-05T03:31:30.946Z,9.80
2019-05-05T03:32:36.151Z,9.55
2019-05-05T03:33:41.458Z,9.90
2019-05-05T03:34:46.022Z,10.08
2019-05-05T03:35:50.774Z,9.85
2019-05-05T03:36:55.511Z,10.15
2019-05-05T03:38:00.267Z,9.75
2019-05-05T03:39:06.374Z,9.95
2019-05-05T03:40:18.512Z,9.18
2019-05-05T03:41:34.346Z,10.95
2019-05-05T03:42:53.583Z,9.90
2019-05-05T03:44:04.979Z,9.83
2019-05-05T03:45:34.057Z,10.03
2019-05-05T03:46:38.404Z,9.40
2019-05-05T03:47:44.106Z,9.98
2019-05-05T03:48:49.042Z,10.18
2019-05-05T03:49:54.094Z,9.90
2019-05-05T03:50:58.599Z,8.95
2019-05-05T03:52:04.839Z,8.88
2019-05-05T03:53:09.932Z,9.38
2019-05-05T03:54:15.288Z,9.03
2019-05-05T03:55:20.242Z,9.10
2019-05-05T03:56:25.018Z,9.13
2019-05-05T03:57:29.997Z,9.45
2019-05-05T03:58:34.519Z,8.10
2019-05-05T03:59:41.646Z,7.78
2019-05-05T04:01:49.058Z,8.75
2019-05-05T04:03:00.525Z,7.62
2019-05-05T04:04:24.999Z,7.40
2019-05-05T04:05:34.017Z,7.28
2019-05-05T04:06:38.631Z,7.55
2019-05-05T04:07:44.042Z,6.70
2019-05-05T04:08:49.418Z,7.70
2019-05-05T04:09:54.358Z,7.00
2019-05-05T04:10:59.075Z,7.25
2019-05-05T04:12:04.435Z,7.37
2019-05-05T04:13:09.402Z,7.78
2019-05-05T04:14:14.642Z,7.83
2019-05-05T04:15:19.009Z,7.87
2019-05-05T04:16:29.094Z,7.70
2019-05-05T04:17:41.317Z,7.50
2019-05-05T04:18:49.386Z,7.60
2019-05-05T04:19:54.458Z,6.92
2019-05-05T04:20:58.797Z,7.05
2019-05-05T04:22:04.223Z,7.28
2019-05-05T04:23:08.814Z,7.20
2019-05-05T04:24:14.579Z,7.28
2019-05-05T04:25:19.223Z,6.90
2019-05-05T04:26:23.564Z,8.40
2019-05-05T04:27:27.890Z,6.50
2019-05-05T04:28:34.451Z,7.00
2019-05-05T04:29:38.320Z,6.15
2019-05-05T04:30:44.450Z,6.90
2019-05-05T04:31:48.753Z,7.28
2019-05-05T04:32:54.560Z,6.30
2019-05-05T04:33:59.241Z,6.05
2019-05-05T04:35:03.749Z,5.58
2019-05-05T04:36:08.090Z,5.50
2019-05-05T04:37:14.675Z,6.05
2019-05-05T04:38:19.256Z,6.17
2019-05-05T04:39:23.723Z,5.90
2019-05-05T04:40:28.355Z,5.53
2019-05-05T04:41:33.790Z,5.45
2019-05-05T04:42:38.442Z,6.05
2019-05-05T04:43:44.198Z,6.30
2019-05-05T04:44:48.790Z,6.10
2019-05-05T04:45:54.118Z,5.90
2019-05-05T04:47:03.887Z,5.35
2019-05-05T04:48:13.769Z,5.62
2019-05-05T04:49:37.617Z,5.05
2019-05-05T04:50:59.962Z,5.65
2019-05-05T04:52:08.030Z,5.40
2019-05-05T04:53:16.068Z,5.30
2019-05-05T04:54:24.477Z,5.53
2019-05-05T04:55:28.874Z,5.00
2019-05-05T04:56:34.332Z,5.40
2019-05-05T04:57:38.824Z,5.47
2019-05-05T04:58:44.021Z,5.33
2019-05-05T04:59:49.974Z,5.33
2019-05-05T05:00:54.763Z,4.87
2019-05-05T05:02:03.991Z,5.20
2019-05-05T05:03:34.673Z,5.28
2019-05-05T05:04:48.069Z,5.45
2019-05-05T05:05:58.035Z,5.10
2019-05-05T05:07:04.666Z,5.47
2019-05-05T05:08:09.258Z,5.55
2019-05-05T05:09:14.671Z,5.97
2019-05-05T05:10:24.157Z,5.80
2019-05-05T05:11:28.557Z,5.80
2019-05-05T05:12:34.154Z,5.87
2019-05-05T05:13:38.786Z,6.12
2019-05-05T05:14:44.087Z,5.60
2019-05-05T05:15:48.598Z,5.67
2019-05-05T05:16:54.191Z,5.00
2019-05-05T05:18:09.202Z,5.80
2019-05-05T05:19:13.897Z,5.15
2019-05-05T05:20:18.446Z,5.42
2019-05-05T05:21:23.721Z,5.70
2019-05-05T05:22:28.160Z,5.30
2019-05-05T05:23:34.070Z,5.70
2019-05-05T05:24:38.655Z,5.87
2019-05-05T05:25:43.867Z,5.10
2019-05-05T05:26:48.519Z,4.67
2019-05-05T05:27:53.607Z,5.45
2019-05-05T05:28:58.232Z,5.08
2019-05-05T05:30:04.515Z,5.40
2019-05-05T05:31:08.748Z,5.55
2019-05-05T05:32:13.055Z,5.35
2019-05-05T05:33:17.403Z,5.60
2019-05-05T05:34:23.767Z,5.42
2019-05-05T05:35:27.718Z,5.20
2019-05-05T05:36:33.829Z,5.30
2019-05-05T05:37:38.043Z,5.22
2019-05-05T05:38:43.836Z,5.72
2019-05-05T05:40:07.118Z,5.10
2019-05-05T05:41:13.817Z,4.92
2019-05-05T05:42:18.146Z,4.85
2019-05-05T05:43:29.559Z,5.35
2019-05-05T05:44:50.646Z,5.17
2019-05-05T05:46:05.241Z,5.47
2019-05-05T05:47:33.749Z,4.92
2019-05-05T05:49:07.004Z,4.80
2019-05-05T05:50:18.594Z,4.80
2019-05-05T05:51:23.795Z,4.62
2019-05-05T05:52:28.420Z,4.50
2019-05-05T05:53:34.738Z,5.37
2019-05-05T05:54:38.831Z,5.10
2019-05-05T05:55:44.811Z,4.70
2019-05-05T05:56:49.379Z,5.17
2019-05-05T05:57:54.264Z,4.90
2019-05-05T05:58:58.712Z,4.83
2019-05-05T06:00:04.109Z,4.62
2019-05-05T06:01:08.559Z,4.80
2019-05-05T06:02:15.513Z,4.50
2019-05-05T06:03:18.959Z,4.28
2019-05-05T06:04:23.809Z,4.40
2019-05-05T06:05:28.134Z,5.00
2019-05-05T06:06:34.503Z,4.10
2019-05-05T06:07:38.453Z,4.50
2019-05-05T06:08:43.970Z,4.53
2019-05-05T06:09:48.586Z,4.20
2019-05-05T06:10:54.658Z,3.90
2019-05-05T06:11:59.301Z,4.50
2019-05-05T06:13:04.232Z,4.22
2019-05-05T06:14:08.763Z,3.75
2019-05-05T06:15:14.200Z,4.17
2019-05-05T06:16:18.743Z,3.80
2019-05-05T06:17:23.871Z,4.25
2019-05-05T06:18:28.345Z,3.77
2019-05-05T06:19:35.700Z,4.10
2019-05-05T06:20:40.067Z,3.98
2019-05-05T06:21:44.854Z,3.92
2019-05-05T06:22:49.243Z,4.10
2019-05-05T06:23:53.870Z,4.22
2019-05-05T06:24:58.302Z,3.67
2019-05-05T06:26:06.701Z,3.92
2019-05-05T06:27:08.618Z,3.62
2019-05-05T06:28:14.457Z,3.52
2019-05-05T06:29:19.130Z,3.40
2019-05-05T06:30:24.340Z,3.92
2019-05-05T06:31:28.911Z,3.80
2019-05-05T06:32:34.253Z,3.80
2019-05-05T06:33:38.755Z,4.17
2019-05-05T06:34:44.299Z,3.95
2019-05-05T06:35:48.939Z,3.72
2019-05-05T06:36:53.740Z,3.87
2019-05-05T06:37:58.323Z,3.58
2019-05-05T06:39:04.587Z,3.70
2019-05-05T06:40:11.458Z,3.87
2019-05-05T06:41:28.111Z,3.85
2019-05-05T06:42:54.271Z,3.27
2019-05-05T06:44:06.604Z,3.55
2019-05-05T06:45:18.926Z,3.50
2019-05-05T06:46:26.207Z,3.50
2019-05-05T06:47:38.027Z,3.40
2019-05-05T06:48:43.890Z,3.60
2019-05-05T06:49:48.302Z,3.90
2019-05-05T06:50:54.423Z,4.00
2019-05-05T06:51:58.626Z,3.43
2019-05-05T06:53:04.294Z,4.03
2019-05-05T06:54:08.763Z,4.10
2019-05-05T06:55:14.071Z,3.80
2019-05-05T06:56:18.557Z,4.00
2019-05-05T06:57:24.030Z,3.50
2019-05-05T06:58:28.719Z,3.57
2019-05-05T06:59:34.991Z,3.60
2019-05-05T07:00:39.123Z,3.50
2019-05-05T07:01:44.269Z,3.70
2019-05-05T07:02:48.798Z,3.63
2019-05-05T07:03:54.145Z,3.43
2019-05-05T07:04:58.556Z,3.43
2019-05-05T07:06:04.267Z,3.43
2019-05-05T07:07:09.106Z,3.67
2019-05-05T07:08:13.849Z,3.50
2019-05-05T07:09:18.500Z,3.10
2019-05-05T07:10:24.445Z,3.87
2019-05-05T07:11:28.968Z,3.30
2019-05-05T07:12:34.715Z,3.57
2019-05-05T07:13:40.062Z,3.40
2019-05-05T07:14:44.705Z,3.73
2019-05-05T07:15:49.063Z,3.50
2019-05-05T07:16:54.456Z,3.47
2019-05-05T07:17:58.964Z,3.47
2019-05-05T07:19:04.397Z,3.63
2019-05-05T07:20:09.323Z,2.83
2019-05-05T07:21:14.353Z,3.53
2019-05-05T07:22:18.903Z,3.10
2019-05-05T07:23:24.639Z,3.00
2019-05-05T07:24:29.195Z,3.40
2019-05-05T07:25:42.110Z,3.40
2019-05-05T07:26:39.727Z,3.43
2019-05-05T07:27:44.260Z,3.30
2019-05-05T07:28:48.875Z,3.10
2019-05-05T07:29:54.146Z,3.30
2019-05-05T07:30:58.749Z,2.97
2019-05-05T07:32:03.943Z,2.93
2019-05-05T07:33:08.651Z,2.80
2019-05-05T07:34:13.908Z,2.73
2019-05-05T07:35:52.425Z,2.60
2019-05-05T07:36:49.287Z,2.47
2019-05-05T07:37:53.877Z,2.80
2019-05-05T07:38:58.383Z,2.73
2019-05-05T07:40:04.196Z,2.27
2019-05-05T07:41:08.826Z,2.77
2019-05-05T07:42:13.738Z,2.50
2019-05-05T07:43:18.264Z,2.70
2019-05-05T07:44:29.038Z,2.57
2019-05-05T07:45:28.699Z,2.43
2019-05-05T07:46:34.613Z,2.17
2019-05-05T07:47:39.345Z,2.37
2019-05-05T07:48:44.310Z,2.23
2019-05-05T07:49:48.807Z,2.03
2019-05-05T07:51:01.945Z,2.43
2019-05-05T07:51:59.261Z,2.50
2019-05-05T07:53:12.312Z,2.37
2019-05-05T07:54:09.712Z,2.40
2019-05-05T07:55:14.401Z,2.30
2019-05-05T07:56:19.051Z,2.43
2019-05-05T07:57:23.844Z,2.20
2019-05-05T07:58:28.285Z,2.30
2019-05-05T07:59:34.045Z,2.53
2019-05-05T08:00:38.727Z,2.33
2019-05-05T08:01:45.809Z,3.40
2019-05-05T08:02:49.110Z,2.17
2019-05-05T08:03:53.967Z,2.43
2019-05-05T08:04:58.491Z,3.10
2019-05-05T08:06:03.989Z,2.70
2019-05-05T08:07:08.625Z,2.20
2019-05-05T08:08:13.976Z,1.97
2019-05-05T08:09:24.940Z,2.27
2019-05-05T08:10:29.421Z,2.03
2019-05-05T08:11:34.398Z,2.07
2019-05-05T08:12:38.895Z,2.00
2019-05-05T08:13:44.316Z,1.90
2019-05-05T08:14:49.005Z,2.60
2019-05-05T08:15:59.858Z,1.63
2019-05-05T08:17:14.584Z,2.00
2019-05-05T08:18:30.171Z,2.47
2019-05-05T08:19:38.552Z,2.20
2019-05-05T08:20:45.697Z,2.27
2019-05-05T08:21:50.120Z,1.93
2019-05-05T08:22:54.507Z,2.23
2019-05-05T08:24:14.014Z,2.30
2019-05-05T08:25:36.137Z,2.30
2019-05-05T08:26:44.498Z,1.90
2019-05-05T08:28:00.144Z,2.27
2019-05-05T08:29:24.008Z,2.80
2019-05-05T08:30:37.518Z,1.90
2019-05-05T08:31:55.483Z,2.30
2019-05-05T08:32:59.968Z,2.10
2019-05-05T08:34:04.371Z,2.93
2019-05-05T08:35:08.794Z,2.20
2019-05-05T08:36:14.674Z,2.73
2019-05-05T08:37:19.203Z,2.83
2019-05-05T08:38:26.696Z,2.20
2019-05-05T08:39:31.040Z,2.67
2019-05-05T08:40:35.503Z,2.30
2019-05-05T08:41:39.899Z,2.10
2019-05-05T08:42:44.600Z,2.23
2019-05-05T08:43:49.102Z,2.90
2019-05-05T08:44:53.909Z,2.83
2019-05-05T08:45:58.460Z,2.50
2019-05-05T08:47:04.510Z,2.70
2019-05-05T08:48:09.032Z,3.30
2019-05-05T08:49:13.769Z,2.67
2019-05-05T08:50:18.355Z,2.93
2019-05-05T08:51:24.630Z,2.93
2019-05-05T08:52:28.871Z,3.27
2019-05-05T08:53:44.103Z,2.73
2019-05-05T08:54:39.434Z,3.33
2019-05-05T08:55:44.384Z,3.20
2019-05-05T08:56:48.936Z,3.27
2019-05-05T08:57:54.003Z,3.00
2019-05-05T08:58:58.563Z,2.97
2019-05-05T09:00:04.862Z,3.77
2019-05-05T09:01:09.126Z,3.13
2019-05-05T09:02:14.926Z,3.70
2019-05-05T09:03:19.540Z,3.23
2019-05-05T09:04:24.708Z,4.83
2019-05-05T09:05:29.194Z,4.10
2019-05-05T09:06:34.465Z,3.90
2019-05-05T09:07:39.623Z,4.57
2019-05-05T09:08:44.295Z,4.40
2019-05-05T09:09:48.802Z,3.90
2019-05-05T09:10:55.208Z,4.43
2019-05-05T09:11:59.243Z,4.33
2019-05-05T09:13:03.955Z,4.10
2019-05-05T09:14:08.388Z,4.50
2019-05-05T09:15:13.690Z,4.17
2019-05-05T09:16:18.371Z,3.90
2019-05-05T09:17:24.356Z,4.00
2019-05-05T09:18:28.801Z,3.87
2019-05-05T09:19:34.475Z,3.47
2019-05-05T09:20:38.950Z,3.43
2019-05-05T09:21:44.736Z,3.80
2019-05-05T09:22:49.326Z,3.97
2019-05-05T09:23:59.862Z,3.70
2019-05-05T09:25:08.451Z,4.17
2019-05-05T09:26:31.492Z,3.60
2019-05-05T09:27:44.283Z,3.53
2019-05-05T09:28:55.324Z,3.73
2019-05-05T09:29:59.667Z,3.80
2019-05-05T09:31:04.285Z,3.80
2019-05-05T09:32:08.723Z,3.83
2019-05-05T09:33:14.244Z,3.63
2019-05-05T09:34:19.194Z,3.33
2019-05-05T09:35:24.050Z,4.00
2019-05-05T09:36:28.601Z,3.40
2019-05-05T09:37:33.971Z,3.43
2019-05-05T09:38:38.863Z,3.73
2019-05-05T09:39:43.809Z,3.93
2019-05-05T09:40:48.333Z,3.80
2019-05-05T09:41:53.603Z,3.37
2019-05-05T09:42:58.134Z,4.03
2019-05-05T09:44:04.290Z,3.73
2019-05-05T09:45:09.932Z,4.13
2019-05-05T09:46:14.498Z,3.50
2019-05-05T09:47:19.185Z,3.33
2019-05-05T09:48:24.241Z,4.40
2019-05-05T09:49:28.864Z,3.73
2019-05-05T09:50:34.145Z,4.83
2019-05-05T09:51:39.454Z,3.43
2019-05-05T09:52:44.418Z,4.00
2019-05-05T09:53:48.856Z,3.93
2019-05-05T09:54:54.454Z,4.87
2019-05-05T09:55:59.174Z,3.43
2019-05-05T09:57:04.479Z,3.90
2019-05-05T09:58:09.275Z,4.43
2019-05-05T09:59:13.726Z,3.80
2019-05-05T10:00:18.320Z,3.90
2019-05-05T10:01:24.545Z,4.60
2019-05-05T10:02:29.164Z,4.27
2019-05-05T10:03:34.111Z,7.47
2019-05-05T10:04:50.303Z,5.07
2019-05-05T10:05:54.740Z,4.60
2019-05-05T10:06:59.159Z,4.57
2019-05-05T10:08:03.679Z,4.07
2019-05-05T10:09:09.667Z,3.73
2019-05-05T10:10:26.953Z,4.17
2019-05-05T10:11:31.451Z,3.97
2019-05-05T10:12:35.939Z,4.27
2019-05-05T10:13:40.484Z,4.10
2019-05-05T10:14:45.029Z,3.60
2019-05-05T10:15:49.599Z,3.77
2019-05-05T10:16:54.170Z,4.10
2019-05-05T10:17:58.787Z,4.20
2019-05-05T10:19:04.510Z,4.50
2019-05-05T10:20:14.514Z,3.50
2019-05-05T10:21:19.006Z,4.37
2019-05-05T10:22:23.952Z,4.00
2019-05-05T10:23:30.251Z,4.60
2019-05-05T10:24:39.989Z,4.70
2019-05-05T10:25:49.476Z,5.10
2019-05-05T10:26:54.352Z,4.60
2019-05-05T10:27:58.908Z,4.00
2019-05-05T10:29:04.200Z,4.03
2019-05-05T10:30:10.964Z,4.20
2019-05-05T10:31:15.298Z,4.13
2019-05-05T10:32:19.616Z,4.13
2019-05-05T10:33:24.697Z,3.90
2019-05-05T10:34:29.392Z,4.57
2019-05-05T10:35:34.419Z,4.37
2019-05-05T10:36:39.155Z,5.23
2019-05-05T10:37:43.966Z,5.07
2019-05-05T10:38:53.804Z,4.40
2019-05-05T10:39:58.354Z,5.23
2019-05-05T10:41:04.263Z,4.93
2019-05-05T10:42:08.848Z,4.37
2019-05-05T10:43:14.796Z,4.90
2019-05-05T10:44:19.180Z,4.80
2019-05-05T10:45:24.559Z,4.67
2019-05-05T10:46:29.262Z,4.40
2019-05-05T10:47:33.603Z,4.20
2019-05-05T10:48:38.015Z,4.43
2019-05-05T10:49:44.197Z,4.63
2019-05-05T10:50:48.858Z,4.40
2019-05-05T10:51:54.301Z,3.90
2019-05-05T10:52:59.030Z,3.10
2019-05-05T10:54:04.050Z,3.83
2019-05-05T10:55:08.793Z,3.87
2019-05-05T10:56:13.689Z,4.13
2019-05-05T10:57:18.578Z,3.57
2019-05-05T10:58:24.393Z,3.70
2019-05-05T10:59:28.815Z,3.83
2019-05-05T11:00:44.681Z,3.87
2019-05-05T11:01:49.202Z,3.73
2019-05-05T11:02:53.606Z,4.10
2019-05-05T11:03:57.897Z,4.03
2019-05-05T11:05:04.060Z,3.87
2019-05-05T11:06:08.463Z,4.47
2019-05-05T11:07:14.621Z,4.40
2019-05-05T11:08:19.590Z,4.20
2019-05-05T11:09:24.495Z,4.20
2019-05-05T11:10:33.945Z,4.77
2019-05-05T11:11:38.496Z,4.67
2019-05-05T11:12:44.385Z,3.93
2019-05-05T11:13:48.853Z,4.63
2019-05-05T11:14:54.519Z,4.50
2019-05-05T11:15:58.996Z,4.30
2019-05-05T11:17:04.110Z,5.30
2019-05-05T11:18:08.877Z,4.83
2019-05-05T11:19:13.890Z,4.60
2019-05-05T11:20:18.363Z,4.40
2019-05-05T11:21:23.670Z,4.33
2019-05-05T11:22:28.216Z,3.93
2019-05-05T11:23:34.890Z,4.50
2019-05-05T11:24:39.195Z,4.87
2019-05-05T11:25:44.269Z,4.60
2019-05-05T11:26:50.452Z,4.60
2019-05-05T11:27:54.840Z,4.43
2019-05-05T11:28:59.175Z,4.60
2019-05-05T11:30:17.219Z,4.73
2019-05-05T11:31:21.560Z,4.60
2019-05-05T11:32:45.030Z,4.13
2019-05-05T11:34:08.523Z,3.90
2019-05-05T11:35:13.947Z,4.33
2019-05-05T11:36:36.495Z,4.40
2019-05-05T11:37:40.873Z,4.80
2019-05-05T11:38:45.530Z,4.70
2019-05-05T11:39:49.899Z,5.33
2019-05-05T11:40:54.763Z,4.63
2019-05-05T11:41:59.315Z,4.60
2019-05-05T11:43:03.871Z,3.90
2019-05-05T11:44:08.271Z,4.43
2019-05-05T11:45:14.888Z,4.10
2019-05-05T11:46:18.871Z,3.93
2019-05-05T11:47:24.515Z,5.03
2019-05-05T11:48:29.084Z,4.43
2019-05-05T11:49:33.763Z,4.93
2019-05-05T11:50:38.267Z,4.20
2019-05-05T11:51:43.721Z,4.77
2019-05-05T11:52:48.290Z,4.37
2019-05-05T11:53:54.002Z,4.33
2019-05-05T11:55:09.661Z,4.33
2019-05-05T11:56:04.869Z,3.90
2019-05-05T11:57:09.179Z,4.13
2019-05-05T11:58:14.377Z,4.20
2019-05-05T11:59:19.127Z,3.80
2019-05-05T12:00:24.142Z,4.20
2019-05-05T12:01:28.718Z,3.70
2019-05-05T12:02:33.524Z,3.70
2019-05-05T12:03:38.087Z,3.90
2019-05-05T12:04:42.580Z,4.10
2019-05-05T12:05:46.958Z,4.00
2019-05-05T12:06:51.277Z,3.90
2019-05-05T12:07:55.588Z,3.73
2019-05-05T12:09:01.721Z,3.37
2019-05-05T12:10:07.874Z,3.50
2019-05-05T12:11:15.064Z,4.15
2019-05-05T12:12:19.843Z,3.60
2019-05-05T12:13:24.175Z,4.15
2019-05-05T12:14:30.036Z,3.52
2019-05-05T12:15:34.411Z,3.52
2019-05-05T12:16:38.791Z,3.52
2019-05-05T12:17:45.442Z,3.42
2019-05-05T12:18:49.844Z,3.90
2019-05-05T12:19:54.310Z,3.58
2019-05-05T12:20:58.686Z,3.20
2019-05-05T12:22:03.163Z,3.00
2019-05-05T12:23:08.122Z,3.02
2019-05-05T12:24:18.556Z,3.50
2019-05-05T12:25:40.752Z,3.35
2019-05-05T12:26:55.915Z,3.45
2019-05-05T12:28:10.407Z,3.33
2019-05-05T12:29:19.088Z,3.17
2019-05-05T12:30:24.509Z,3.58
2019-05-05T12:31:29.749Z,3.35
2019-05-05T12:32:34.786Z,3.75
2019-05-05T12:33:39.263Z,3.30
2019-05-05T12:34:44.598Z,3.22
2019-05-05T12:35:49.122Z,3.33
2019-05-05T12:36:54.087Z,3.50
2019-05-05T12:37:58.516Z,3.55
2019-05-05T12:39:04.495Z,3.40
2019-05-05T12:40:14.333Z,3.30
2019-05-05T12:41:20.939Z,3.00
2019-05-05T12:42:25.072Z,3.52
2019-05-05T12:43:29.457Z,3.90
2019-05-05T12:44:38.652Z,4.05
2019-05-05T12:45:45.143Z,3.60
2019-05-05T12:47:09.931Z,3.65
2019-05-05T12:48:23.954Z,4.12
2019-05-05T12:49:27.855Z,3.85
2019-05-05T12:50:33.810Z,3.83
2019-05-05T12:51:38.316Z,3.80
2019-05-05T12:52:44.101Z,3.55
2019-05-05T12:53:48.652Z,3.37
2019-05-05T12:54:54.597Z,3.77
2019-05-05T12:55:59.326Z,3.93
2019-05-05T12:57:04.406Z,3.73
2019-05-05T12:58:08.952Z,3.60
2019-05-05T12:59:19.563Z,4.03
2019-05-05T13:00:24.328Z,4.10
2019-05-05T13:01:33.618Z,3.30
2019-05-05T13:02:38.508Z,4.13
2019-05-05T13:03:43.715Z,4.47
2019-05-05T13:04:48.605Z,4.00
2019-05-05T13:05:53.569Z,4.10
2019-05-05T13:06:58.031Z,4.17
2019-05-05T13:08:03.870Z,3.67
2019-05-05T13:09:09.472Z,3.93
2019-05-05T13:10:17.211Z,4.07
2019-05-05T13:11:23.641Z,3.63
2019-05-05T13:12:30.839Z,5.20
2019-05-05T13:13:35.175Z,4.30
2019-05-05T13:14:39.651Z,3.83
2019-05-05T13:15:44.370Z,3.87
2019-05-05T13:16:52.891Z,4.20
2019-05-05T13:17:55.064Z,4.17
2019-05-05T13:18:59.391Z,3.77
2019-05-05T13:20:14.616Z,4.23
2019-05-05T13:21:44.205Z,4.50
2019-05-05T13:23:04.190Z,3.83
2019-05-05T13:24:30.358Z,3.87
2019-05-05T13:25:55.967Z,3.50
2019-05-05T13:27:08.471Z,3.87
2019-05-05T13:28:09.395Z,4.03
2019-05-05T13:29:14.793Z,3.63
2019-05-05T13:30:19.492Z,3.27
2019-05-05T13:31:24.006Z,3.27
2019-05-05T13:32:28.380Z,2.67
2019-05-05T13:33:37.253Z,3.07
2019-05-05T13:34:43.832Z,3.13
2019-05-05T13:35:48.444Z,3.60
2019-05-05T13:36:57.417Z,3.00
2019-05-05T13:38:03.969Z,3.60
2019-05-05T13:39:09.645Z,3.50
2019-05-05T13:40:14.982Z,3.90
2019-05-05T13:41:19.527Z,3.33
2019-05-05T13:42:24.475Z,3.30
2019-05-05T13:43:28.936Z,2.87
2019-05-05T13:44:56.874Z,3.63
2019-05-05T13:46:06.863Z,3.40
2019-05-05T13:47:11.426Z,3.30
2019-05-05T13:48:15.729Z,2.80
2019-05-05T13:49:45.595Z,2.97
2019-05-05T13:50:53.879Z,2.97
2019-05-05T13:52:01.891Z,3.10
2019-05-05T13:53:06.491Z,3.25
2019-05-05T13:54:13.290Z,3.20
2019-05-05T13:55:17.369Z,3.35
2019-05-05T13:56:21.922Z,3.25
2019-05-05T13:57:26.411Z,3.17
2019-05-05T13:58:30.824Z,3.52
2019-05-05T13:59:35.224Z,3.17
2019-05-05T14:00:39.635Z,3.60
2019-05-05T14:01:44.911Z,3.25
2019-05-05T14:02:49.511Z,3.35
2019-05-05T14:03:54.214Z,3.00
2019-05-05T14:04:59.477Z,3.30
2019-05-05T14:06:04.714Z,3.20
2019-05-05T14:07:09.427Z,2.92
2019-05-05T14:08:14.691Z,3.25
2019-05-05T14:09:19.668Z,3.70
2019-05-05T14:10:25.337Z,3.33
2019-05-05T14:11:29.722Z,3.47
2019-05-05T14:12:34.566Z,3.60
2019-05-05T14:13:39.057Z,3.30
2019-05-05T14:14:44.050Z,2.95
2019-05-05T14:15:48.519Z,3.08
2019-05-05T14:16:53.772Z,3.00
2019-05-05T14:17:58.328Z,3.02
2019-05-05T14:19:04.388Z,2.70
2019-05-05T14:20:11.961Z,3.95
2019-05-05T14:21:15.273Z,3.77
2019-05-05T14:22:19.770Z,3.45
2019-05-05T14:23:24.407Z,2.98
2019-05-05T14:24:37.478Z,2.75
2019-05-05T14:25:43.958Z,2.77
2019-05-05T14:26:47.947Z,3.00
2019-05-05T14:27:54.122Z,2.60
2019-05-05T14:28:58.654Z,3.52
2019-05-05T14:30:21.095Z,3.00
2019-05-05T14:31:30.400Z,3.22
2019-05-05T14:32:36.528Z,2.85
2019-05-05T14:34:09.387Z,3.10
2019-05-05T14:35:34.242Z,2.50
2019-05-05T14:37:06.848Z,3.22
2019-05-05T14:38:14.707Z,3.00
2019-05-05T14:39:19.999Z,3.17
2019-05-05T14:40:24.487Z,3.12
2019-05-05T14:41:28.894Z,3.37
2019-05-05T14:42:34.170Z,3.98
2019-05-05T14:43:38.801Z,3.17
2019-05-05T14:44:43.753Z,3.10
2019-05-05T14:45:48.350Z,3.30
2019-05-05T14:46:52.707Z,3.52
2019-05-05T14:47:57.007Z,2.98